sensor_id;sensor_type;location;lat;lon;timestamp;temperature;humidity
51175;DHT22;37240;50.104;20.010;2023-03-17T00:02:24;4.10;84.30
51175;DHT22;37240;50.104;20.010;2023-03-17T00:07:24;4.00;88.30
51175;DHT22;37240;50.104;20.010;2023-03-17T00:12:25;4.00;86.40
51175;DHT22;37240;50.104;20.010;2023-03-17T00:17:25;4.00;86.00
51175;DHT22;37240;50.104;20.010;2023-03-17T00:22:26;4.10;85.80
51175;DHT22;37240;50.104;20.010;2023-03-17T00:27:26;4.00;86.50
51175;DHT22;37240;50.104;20.010;2023-03-17T00:32:27;3.90;89.80
51175;DHT22;37240;50.104;20.010;2023-03-17T00:37:27;3.70;90.60
51175;DHT22;37240;50.104;20.010;2023-03-17T00:42:28;3.70;91.60
51175;DHT22;37240;50.104;20.010;2023-03-17T00:47:28;3.70;91.20
51175;DHT22;37240;50.104;20.010;2023-03-17T00:52:30;3.50;92.00
51175;DHT22;37240;50.104;20.010;2023-03-17T00:57:30;3.50;92.00
51175;DHT22;37240;50.104;20.010;2023-03-17T01:02:31;3.40;92.10
51175;DHT22;37240;50.104;20.010;2023-03-17T01:07:32;3.40;93.00
51175;DHT22;37240;50.104;20.010;2023-03-17T01:12:32;3.40;93.50
51175;DHT22;37240;50.104;20.010;2023-03-17T01:17:33;3.40;93.20
51175;DHT22;37240;50.104;20.010;2023-03-17T01:22:33;3.40;92.50
51175;DHT22;37240;50.104;20.010;2023-03-17T01:27:34;3.40;92.50
51175;DHT22;37240;50.104;20.010;2023-03-17T01:32:35;3.40;92.70
51175;DHT22;37240;50.104;20.010;2023-03-17T01:37:35;3.40;92.20
51175;DHT22;37240;50.104;20.010;2023-03-17T01:42:36;3.40;92.10
51175;DHT22;37240;50.104;20.010;2023-03-17T01:47:37;3.30;92.20
51175;DHT22;37240;50.104;20.010;2023-03-17T01:52:38;3.30;92.70
51175;DHT22;37240;50.104;20.010;2023-03-17T01:57:46;3.30;93.00
51175;DHT22;37240;50.104;20.010;2023-03-17T02:02:49;3.20;93.10
51175;DHT22;37240;50.104;20.010;2023-03-17T02:07:51;3.20;93.90
51175;DHT22;37240;50.104;20.010;2023-03-17T02:12:54;3.10;94.00
51175;DHT22;37240;50.104;20.010;2023-03-17T02:17:56;3.20;93.80
51175;DHT22;37240;50.104;20.010;2023-03-17T02:22:56;3.20;93.70
51175;DHT22;37240;50.104;20.010;2023-03-17T02:28:22;3.20;93.80
51175;DHT22;37240;50.104;20.010;2023-03-17T02:33:24;3.20;93.80
51175;DHT22;37240;50.104;20.010;2023-03-17T02:38:24;3.20;93.90
51175;DHT22;37240;50.104;20.010;2023-03-17T02:43:25;3.00;94.10
51175;DHT22;37240;50.104;20.010;2023-03-17T02:48:26;2.90;94.20
51175;DHT22;37240;50.104;20.010;2023-03-17T02:53:26;2.90;94.30
51175;DHT22;37240;50.104;20.010;2023-03-17T02:58:27;2.80;94.60
51175;DHT22;37240;50.104;20.010;2023-03-17T03:03:28;2.90;95.20
51175;DHT22;37240;50.104;20.010;2023-03-17T03:08:29;2.80;95.30
51175;DHT22;37240;50.104;20.010;2023-03-17T03:13:30;2.80;95.30
51175;DHT22;37240;50.104;20.010;2023-03-17T03:18:30;2.80;95.20
51175;DHT22;37240;50.104;20.010;2023-03-17T03:23:31;2.70;95.60
51175;DHT22;37240;50.104;20.010;2023-03-17T03:28:31;2.70;95.70
51175;DHT22;37240;50.104;20.010;2023-03-17T03:33:32;2.60;96.10
51175;DHT22;37240;50.104;20.010;2023-03-17T03:38:33;2.60;96.50
51175;DHT22;37240;50.104;20.010;2023-03-17T03:43:34;2.60;96.60
51175;DHT22;37240;50.104;20.010;2023-03-17T03:48:35;2.50;96.30
51175;DHT22;37240;50.104;20.010;2023-03-17T03:53:35;2.50;96.70
51175;DHT22;37240;50.104;20.010;2023-03-17T03:58:36;2.40;96.80
51175;DHT22;37240;50.104;20.010;2023-03-17T04:03:37;2.40;97.00
51175;DHT22;37240;50.104;20.010;2023-03-17T04:08:38;2.30;97.50
51175;DHT22;37240;50.104;20.010;2023-03-17T04:13:38;2.20;98.10
51175;DHT22;37240;50.104;20.010;2023-03-17T04:18:39;2.00;98.70
51175;DHT22;37240;50.104;20.010;2023-03-17T04:23:39;1.90;99.10
51175;DHT22;37240;50.104;20.010;2023-03-17T04:28:40;1.80;99.50
51175;DHT22;37240;50.104;20.010;2023-03-17T04:33:41;1.70;99.90
51175;DHT22;37240;50.104;20.010;2023-03-17T04:38:41;1.70;99.90
51175;DHT22;37240;50.104;20.010;2023-03-17T04:43:42;1.80;99.90
51175;DHT22;37240;50.104;20.010;2023-03-17T04:48:42;1.90;99.70
51175;DHT22;37240;50.104;20.010;2023-03-17T04:53:43;2.00;99.40
51175;DHT22;37240;50.104;20.010;2023-03-17T04:58:44;2.00;99.40
51175;DHT22;37240;50.104;20.010;2023-03-17T05:03:44;2.00;99.30
51175;DHT22;37240;50.104;20.010;2023-03-17T05:08:45;2.10;99.30
51175;DHT22;37240;50.104;20.010;2023-03-17T05:13:46;2.10;99.30
51175;DHT22;37240;50.104;20.010;2023-03-17T05:18:46;2.20;99.30
51175;DHT22;37240;50.104;20.010;2023-03-17T05:23:47;2.60;98.80
51175;DHT22;37240;50.104;20.010;2023-03-17T05:28:47;3.10;97.60
51175;DHT22;37240;50.104;20.010;2023-03-17T05:33:48;3.70;96.40
51175;DHT22;37240;50.104;20.010;2023-03-17T05:38:48;4.20;94.80
51175;DHT22;37240;50.104;20.010;2023-03-17T05:43:49;4.60;93.30
51175;DHT22;37240;50.104;20.010;2023-03-17T05:48:49;4.90;92.60
51175;DHT22;37240;50.104;20.010;2023-03-17T05:53:50;5.20;91.90
51175;DHT22;37240;50.104;20.010;2023-03-17T05:58:50;5.50;90.60
51175;DHT22;37240;50.104;20.010;2023-03-17T06:03:51;5.80;90.20
51175;DHT22;37240;50.104;20.010;2023-03-17T06:08:52;6.00;88.10
51175;DHT22;37240;50.104;20.010;2023-03-17T06:13:53;6.50;86.80
51175;DHT22;37240;50.104;20.010;2023-03-17T06:18:53;6.60;85.00
51175;DHT22;37240;50.104;20.010;2023-03-17T06:23:54;7.00;84.40
51175;DHT22;37240;50.104;20.010;2023-03-17T06:28:54;7.40;83.20
51175;DHT22;37240;50.104;20.010;2023-03-17T06:33:55;7.70;80.40
51175;DHT22;37240;50.104;20.010;2023-03-17T06:38:55;7.80;79.20
51175;DHT22;37240;50.104;20.010;2023-03-17T06:43:56;7.90;79.80
51175;DHT22;37240;50.104;20.010;2023-03-17T06:48:58;8.30;79.90
51175;DHT22;37240;50.104;20.010;2023-03-17T06:53:58;8.80;76.30
51175;DHT22;37240;50.104;20.010;2023-03-17T06:58:59;9.40;75.60
51175;DHT22;37240;50.104;20.010;2023-03-17T07:03:59;9.80;71.30
51175;DHT22;37240;50.104;20.010;2023-03-17T07:09:00;10.30;68.20
51175;DHT22;37240;50.104;20.010;2023-03-17T07:14:01;10.50;67.10
51175;DHT22;37240;50.104;20.010;2023-03-17T07:19:01;10.90;65.50
51175;DHT22;37240;50.104;20.010;2023-03-17T07:24:02;11.20;62.20
51175;DHT22;37240;50.104;20.010;2023-03-17T07:29:03;11.40;60.50
51175;DHT22;37240;50.104;20.010;2023-03-17T07:34:03;11.30;60.20
51175;DHT22;37240;50.104;20.010;2023-03-17T07:39:04;11.60;59.80
51175;DHT22;37240;50.104;20.010;2023-03-17T07:44:05;12.10;58.10
51175;DHT22;37240;50.104;20.010;2023-03-17T07:49:05;12.40;56.10
51175;DHT22;37240;50.104;20.010;2023-03-17T07:54:06;12.60;57.20
51175;DHT22;37240;50.104;20.010;2023-03-17T07:59:06;13.10;55.80
51175;DHT22;37240;50.104;20.010;2023-03-17T08:04:07;13.50;54.20
51175;DHT22;37240;50.104;20.010;2023-03-17T08:09:11;13.60;52.90
51175;DHT22;37240;50.104;20.010;2023-03-17T08:14:11;13.70;52.30
51175;DHT22;37240;50.104;20.010;2023-03-17T08:19:12;13.80;51.80
51175;DHT22;37240;50.104;20.010;2023-03-17T08:24:13;13.90;51.30
51175;DHT22;37240;50.104;20.010;2023-03-17T08:29:13;14.20;47.10
51175;DHT22;37240;50.104;20.010;2023-03-17T08:34:14;14.20;45.70
51175;DHT22;37240;50.104;20.010;2023-03-17T08:39:14;14.00;46.90
51175;DHT22;37240;50.104;20.010;2023-03-17T08:44:16;14.20;46.40
51175;DHT22;37240;50.104;20.010;2023-03-17T08:49:17;14.20;44.80
51175;DHT22;37240;50.104;20.010;2023-03-17T08:54:18;14.20;44.40
51175;DHT22;37240;50.104;20.010;2023-03-17T08:59:18;14.20;43.60
51175;DHT22;37240;50.104;20.010;2023-03-17T09:04:19;14.00;44.00
51175;DHT22;37240;50.104;20.010;2023-03-17T09:09:19;14.10;46.70
51175;DHT22;37240;50.104;20.010;2023-03-17T09:14:20;13.80;48.30
51175;DHT22;37240;50.104;20.010;2023-03-17T09:19:20;13.60;49.20
51175;DHT22;37240;50.104;20.010;2023-03-17T09:24:21;13.50;49.30
51175;DHT22;37240;50.104;20.010;2023-03-17T09:29:22;13.40;49.70
51175;DHT22;37240;50.104;20.010;2023-03-17T09:34:22;13.30;49.80
51175;DHT22;37240;50.104;20.010;2023-03-17T09:39:23;13.20;49.80
51175;DHT22;37240;50.104;20.010;2023-03-17T09:49:59;13.50;47.20
51175;DHT22;37240;50.104;20.010;2023-03-17T09:55:03;13.50;43.30
51175;DHT22;37240;50.104;20.010;2023-03-17T10:16:04;13.90;39.40
51175;DHT22;37240;50.104;20.010;2023-03-17T10:21:08;13.70;39.40
51175;DHT22;37240;50.104;20.010;2023-03-17T10:31:29;13.60;38.80
51175;DHT22;37240;50.104;20.010;2023-03-17T10:36:53;13.50;38.00
51175;DHT22;37240;50.104;20.010;2023-03-17T10:41:58;13.50;37.50
51175;DHT22;37240;50.104;20.010;2023-03-17T10:46:58;13.40;35.90
51175;DHT22;37240;50.104;20.010;2023-03-17T10:51:59;13.10;36.70
51175;DHT22;37240;50.104;20.010;2023-03-17T10:57:02;12.90;36.80
51175;DHT22;37240;50.104;20.010;2023-03-17T11:02:33;12.70;37.40
51175;DHT22;37240;50.104;20.010;2023-03-17T11:07:38;12.80;38.00
51175;DHT22;37240;50.104;20.010;2023-03-17T11:12:39;12.90;38.10
51175;DHT22;37240;50.104;20.010;2023-03-17T11:18:01;12.90;37.80
51175;DHT22;37240;50.104;20.010;2023-03-17T11:38:36;12.90;37.50
51175;DHT22;37240;50.104;20.010;2023-03-17T11:49:11;13.00;36.70
51175;DHT22;37240;50.104;20.010;2023-03-17T11:59:49;12.90;37.20
51175;DHT22;37240;50.104;20.010;2023-03-17T12:04:52;13.00;36.50
51175;DHT22;37240;50.104;20.010;2023-03-17T12:15:13;13.10;36.90
51175;DHT22;37240;50.104;20.010;2023-03-17T12:20:20;13.00;36.20
51175;DHT22;37240;50.104;20.010;2023-03-17T12:25:47;12.90;36.90
51175;DHT22;37240;50.104;20.010;2023-03-17T12:30:51;13.20;37.10
51175;DHT22;37240;50.104;20.010;2023-03-17T12:35:53;13.10;36.00
51175;DHT22;37240;50.104;20.010;2023-03-17T12:52:04;13.50;35.90
51175;DHT22;37240;50.104;20.010;2023-03-17T12:57:20;13.50;35.70
51175;DHT22;37240;50.104;20.010;2023-03-17T13:17:41;13.30;36.30
51175;DHT22;37240;50.104;20.010;2023-03-17T13:49:26;13.50;37.30
51175;DHT22;37240;50.104;20.010;2023-03-17T13:54:32;13.40;37.30
51175;DHT22;37240;50.104;20.010;2023-03-17T14:05:01;13.30;37.30
51175;DHT22;37240;50.104;20.010;2023-03-17T14:10:01;13.40;37.20
51175;DHT22;37240;50.104;20.010;2023-03-17T14:15:31;13.20;37.10
51175;DHT22;37240;50.104;20.010;2023-03-17T14:20:32;13.20;36.90
51175;DHT22;37240;50.104;20.010;2023-03-17T14:25:36;13.20;36.90
51175;DHT22;37240;50.104;20.010;2023-03-17T14:30:38;13.20;36.90
51175;DHT22;37240;50.104;20.010;2023-03-17T14:35:40;13.20;36.90
51175;DHT22;37240;50.104;20.010;2023-03-17T14:40:41;13.10;36.30
51175;DHT22;37240;50.104;20.010;2023-03-17T14:46:02;13.10;35.80
51175;DHT22;37240;50.104;20.010;2023-03-17T14:51:23;13.00;35.20
51175;DHT22;37240;50.104;20.010;2023-03-17T14:56:36;13.00;35.80
51175;DHT22;37240;50.104;20.010;2023-03-17T15:01:42;12.90;34.60
51175;DHT22;37240;50.104;20.010;2023-03-17T15:11:49;13.00;35.00
51175;DHT22;37240;50.104;20.010;2023-03-17T15:16:51;13.10;34.00
51175;DHT22;37240;50.104;20.010;2023-03-17T15:21:53;13.10;33.20
51175;DHT22;37240;50.104;20.010;2023-03-17T15:27:02;13.00;34.20
51175;DHT22;37240;50.104;20.010;2023-03-17T15:32:18;13.00;33.60
51175;DHT22;37240;50.104;20.010;2023-03-17T15:37:20;12.80;33.90
51175;DHT22;37240;50.104;20.010;2023-03-17T15:42:24;12.70;35.80
51175;DHT22;37240;50.104;20.010;2023-03-17T15:47:27;12.60;36.80
51175;DHT22;37240;50.104;20.010;2023-03-17T15:52:28;12.50;37.30
51175;DHT22;37240;50.104;20.010;2023-03-17T15:57:29;12.40;38.50
51175;DHT22;37240;50.104;20.010;2023-03-17T16:02:33;12.50;38.90
51175;DHT22;37240;50.104;20.010;2023-03-17T16:07:35;12.30;40.10
51175;DHT22;37240;50.104;20.010;2023-03-17T16:12:35;12.20;42.50
51175;DHT22;37240;50.104;20.010;2023-03-17T16:17:36;12.00;43.80
51175;DHT22;37240;50.104;20.010;2023-03-17T16:22:39;12.00;44.90
51175;DHT22;37240;50.104;20.010;2023-03-17T16:27:40;11.90;45.50
51175;DHT22;37240;50.104;20.010;2023-03-17T16:32:40;11.80;45.60
51175;DHT22;37240;50.104;20.010;2023-03-17T16:37:41;11.80;46.00
51175;DHT22;37240;50.104;20.010;2023-03-17T16:42:42;11.70;46.40
51175;DHT22;37240;50.104;20.010;2023-03-17T16:47:42;11.60;46.50
51175;DHT22;37240;50.104;20.010;2023-03-17T16:52:43;11.50;46.10
51175;DHT22;37240;50.104;20.010;2023-03-17T16:57:46;11.30;46.40
51175;DHT22;37240;50.104;20.010;2023-03-17T17:02:47;11.00;46.30
51175;DHT22;37240;50.104;20.010;2023-03-17T17:07:49;10.80;46.80
51175;DHT22;37240;50.104;20.010;2023-03-17T17:12:50;10.80;46.60
51175;DHT22;37240;50.104;20.010;2023-03-17T17:17:54;10.90;46.80
51175;DHT22;37240;50.104;20.010;2023-03-17T17:22:57;10.90;46.80
51175;DHT22;37240;50.104;20.010;2023-03-17T17:27:58;10.90;48.40
51175;DHT22;37240;50.104;20.010;2023-03-17T17:32:59;10.70;48.20
51175;DHT22;37240;50.104;20.010;2023-03-17T17:38:01;10.60;48.00
51175;DHT22;37240;50.104;20.010;2023-03-17T17:43:02;10.60;48.30
51175;DHT22;37240;50.104;20.010;2023-03-17T17:48:02;10.50;49.10
51175;DHT22;37240;50.104;20.010;2023-03-17T17:53:03;10.30;49.70
51175;DHT22;37240;50.104;20.010;2023-03-17T17:58:03;10.20;49.80
51175;DHT22;37240;50.104;20.010;2023-03-17T18:03:04;10.00;50.50
51175;DHT22;37240;50.104;20.010;2023-03-17T18:08:05;9.80;51.10
51175;DHT22;37240;50.104;20.010;2023-03-17T18:13:06;9.80;50.80
51175;DHT22;37240;50.104;20.010;2023-03-17T18:18:07;9.80;50.70
51175;DHT22;37240;50.104;20.010;2023-03-17T18:23:07;9.70;50.80
51175;DHT22;37240;50.104;20.010;2023-03-17T18:28:08;9.60;50.90
51175;DHT22;37240;50.104;20.010;2023-03-17T18:33:15;9.50;50.90
51175;DHT22;37240;50.104;20.010;2023-03-17T18:38:16;9.40;51.30
51175;DHT22;37240;50.104;20.010;2023-03-17T18:43:17;9.20;51.50
51175;DHT22;37240;50.104;20.010;2023-03-17T18:48:18;9.20;51.70
51175;DHT22;37240;50.104;20.010;2023-03-17T18:53:19;9.10;51.80
51175;DHT22;37240;50.104;20.010;2023-03-17T18:58:19;9.00;51.80
51175;DHT22;37240;50.104;20.010;2023-03-17T19:03:20;9.00;51.90
51175;DHT22;37240;50.104;20.010;2023-03-17T19:08:21;8.90;51.90
51175;DHT22;37240;50.104;20.010;2023-03-17T19:13:21;8.80;52.50
51175;DHT22;37240;50.104;20.010;2023-03-17T19:18:22;8.80;52.50
51175;DHT22;37240;50.104;20.010;2023-03-17T19:23:22;8.80;52.60
51175;DHT22;37240;50.104;20.010;2023-03-17T19:28:23;8.70;52.80
51175;DHT22;37240;50.104;20.010;2023-03-17T19:33:24;8.60;53.30
51175;DHT22;37240;50.104;20.010;2023-03-17T19:38:25;8.60;53.20
51175;DHT22;37240;50.104;20.010;2023-03-17T19:43:26;8.50;53.30
51175;DHT22;37240;50.104;20.010;2023-03-17T19:48:26;8.30;54.00
51175;DHT22;37240;50.104;20.010;2023-03-17T19:53:27;8.30;54.40
51175;DHT22;37240;50.104;20.010;2023-03-17T19:58:27;8.40;54.10
51175;DHT22;37240;50.104;20.010;2023-03-17T20:03:28;8.20;54.30
51175;DHT22;37240;50.104;20.010;2023-03-17T20:08:28;8.20;54.60
51175;DHT22;37240;50.104;20.010;2023-03-17T20:13:29;8.20;54.30
51175;DHT22;37240;50.104;20.010;2023-03-17T20:18:30;8.10;55.00
51175;DHT22;37240;50.104;20.010;2023-03-17T20:23:30;8.10;55.00
51175;DHT22;37240;50.104;20.010;2023-03-17T20:28:31;8.00;55.40
51175;DHT22;37240;50.104;20.010;2023-03-17T20:33:32;7.90;55.70
51175;DHT22;37240;50.104;20.010;2023-03-17T20:38:34;7.80;56.00
51175;DHT22;37240;50.104;20.010;2023-03-17T20:43:35;7.70;56.20
51175;DHT22;37240;50.104;20.010;2023-03-17T20:48:36;7.70;56.50
51175;DHT22;37240;50.104;20.010;2023-03-17T20:53:36;7.60;57.10
51175;DHT22;37240;50.104;20.010;2023-03-17T20:58:37;7.60;57.50
51175;DHT22;37240;50.104;20.010;2023-03-17T21:03:39;7.70;57.50
51175;DHT22;37240;50.104;20.010;2023-03-17T21:08:39;7.60;57.90
51175;DHT22;37240;50.104;20.010;2023-03-17T21:13:40;7.40;58.60
51175;DHT22;37240;50.104;20.010;2023-03-17T21:18:41;7.50;59.20
51175;DHT22;37240;50.104;20.010;2023-03-17T21:23:41;7.50;59.00
51175;DHT22;37240;50.104;20.010;2023-03-17T21:28:42;7.30;59.20
51175;DHT22;37240;50.104;20.010;2023-03-17T21:33:43;7.30;59.20
51175;DHT22;37240;50.104;20.010;2023-03-17T21:38:43;7.20;59.70
51175;DHT22;37240;50.104;20.010;2023-03-17T21:43:44;7.10;59.90
51175;DHT22;37240;50.104;20.010;2023-03-17T21:48:44;7.00;60.80
51175;DHT22;37240;50.104;20.010;2023-03-17T21:53:45;7.00;61.00
51175;DHT22;37240;50.104;20.010;2023-03-17T21:58:46;7.00;61.30
51175;DHT22;37240;50.104;20.010;2023-03-17T22:03:47;6.90;61.70
51175;DHT22;37240;50.104;20.010;2023-03-17T22:08:48;6.80;62.50
51175;DHT22;37240;50.104;20.010;2023-03-17T22:13:48;6.80;62.90
51175;DHT22;37240;50.104;20.010;2023-03-17T22:18:49;6.70;63.30
51175;DHT22;37240;50.104;20.010;2023-03-17T22:23:50;6.50;63.90
51175;DHT22;37240;50.104;20.010;2023-03-17T22:28:50;6.50;64.10
51175;DHT22;37240;50.104;20.010;2023-03-17T22:33:53;6.40;64.60
51175;DHT22;37240;50.104;20.010;2023-03-17T22:38:54;6.50;64.50
51175;DHT22;37240;50.104;20.010;2023-03-17T22:43:56;6.60;64.80
51175;DHT22;37240;50.104;20.010;2023-03-17T22:48:56;6.60;63.80
51175;DHT22;37240;50.104;20.010;2023-03-17T22:53:57;6.60;64.10
51175;DHT22;37240;50.104;20.010;2023-03-17T22:58:58;6.40;63.90
51175;DHT22;37240;50.104;20.010;2023-03-17T23:03:58;6.50;63.90
51175;DHT22;37240;50.104;20.010;2023-03-17T23:08:59;6.40;64.20
51175;DHT22;37240;50.104;20.010;2023-03-17T23:13:59;6.30;64.40
51175;DHT22;37240;50.104;20.010;2023-03-17T23:19:00;6.30;64.20
51175;DHT22;37240;50.104;20.010;2023-03-17T23:24:01;6.20;64.90
51175;DHT22;37240;50.104;20.010;2023-03-17T23:29:06;6.20;65.30
51175;DHT22;37240;50.104;20.010;2023-03-17T23:34:07;6.20;65.10
51175;DHT22;37240;50.104;20.010;2023-03-17T23:39:08;6.20;65.10
51175;DHT22;37240;50.104;20.010;2023-03-17T23:44:09;6.20;65.40
51175;DHT22;37240;50.104;20.010;2023-03-17T23:49:09;6.20;65.30
51175;DHT22;37240;50.104;20.010;2023-03-17T23:54:10;6.10;65.70
51175;DHT22;37240;50.104;20.010;2023-03-17T23:59:11;6.00;66.70
